Time;durP1;ratioP1;P1;durP2;ratioP2;P2;SDS_P1;SDS_P2;PMS_P1;PMS_P2;Temp;Humidity;BMP_temperature;BMP_pressure;BME280_temperature;BME280_humidity;BME280_pressure;Samples;Min_cycle;Max_cycle;Signal;HPM_P1;HPM_P2
2021/12/29 00:00:23;;;;;;;101.82;39.33;;;;;;;-8.42;69.82;99940.66;5074219;28;20037;-57
2021/12/29 00:02:49;;;;;;;89.47;34.40;;;;;;;-8.43;71.62;99939.03;5074979;28;20048;-58
2021/12/29 00:05:15;;;;;;;82.30;29.48;;;;;;;-8.50;72.20;99946.31;5074215;28;20036;-57
2021/12/29 00:07:41;;;;;;;72.20;27.33;;;;;;;-8.58;74.01;99946.00;5074366;28;20379;-57
2021/12/29 00:10:08;;;;;;;79.55;30.92;;;;;;;-8.59;72.78;99937.47;5076762;28;20040;-59
2021/12/29 00:12:40;;;;;;;82.10;33.72;;;;;;;-8.61;70.58;99947.03;5088610;28;20135;-58
2021/12/29 00:15:09;;;;;;;77.03;31.17;;;;;;;-8.74;70.11;99944.44;5074081;28;20068;-58
2021/12/29 00:17:36;;;;;;;72.00;27.83;;;;;;;-8.83;71.50;99931.38;5074061;28;20086;-58
2021/12/29 00:20:03;;;;;;;69.22;27.67;;;;;;;-8.86;72.82;99936.72;5077331;28;20047;-55
2021/12/29 00:22:29;;;;;;;75.78;29.60;;;;;;;-8.90;70.83;99938.66;5087961;28;20032;-57
2021/12/29 00:24:55;;;;;;;66.88;25.83;;;;;;;-8.92;72.84;99930.22;5073973;28;20044;-59
2021/12/29 00:27:21;;;;;;;65.13;26.77;;;;;;;-8.93;70.53;99926.84;5073905;28;20041;-58
2021/12/29 00:29:47;;;;;;;64.28;27.25;;;;;;;-8.97;70.36;99924.56;5070508;28;20071;-59
2021/12/29 00:32:44;;;;;;;64.07;27.27;;;;;;;-9.08;70.12;99930.41;5052270;28;20585;-54
2021/12/29 00:35:49;;;;;;;56.95;24.50;;;;;;;-9.10;70.72;99924.53;5031304;28;20488;-58
2021/12/29 00:38:33;;;;;;;60.40;25.35;;;;;;;-9.16;70.69;99932.63;5018323;28;20053;-56
2021/12/29 00:41:19;;;;;;;61.50;24.95;;;;;;;-9.22;69.41;99928.72;5068213;28;20052;-56
2021/12/29 00:44:24;;;;;;;58.88;24.88;;;;;;;-9.37;68.82;99916.84;5051348;28;20494;-57
2021/12/29 00:47:05;;;;;;;48.58;21.30;;;;;;;-9.36;70.89;99933.91;5033995;28;20179;-57
2021/12/29 00:49:36;;;;;;;56.67;23.63;;;;;;;-9.37;71.35;99933.06;5052029;28;20132;-59
2021/12/29 00:52:07;;;;;;;43.90;20.70;;;;;;;-9.33;69.13;99931.13;5060914;28;20044;-57
2021/12/29 00:54:34;;;;;;;54.63;22.45;;;;;;;-9.36;70.11;99923.63;5073512;28;20041;-56
2021/12/29 00:57:00;;;;;;;53.75;20.88;;;;;;;-9.34;68.58;99936.38;5080930;28;20181;-57
2021/12/29 00:59:26;;;;;;;55.13;23.13;;;;;;;-9.40;67.89;99932.44;5073632;28;20090;-59
2021/12/29 01:01:52;;;;;;;54.05;21.67;;;;;;;-9.42;68.83;99935.09;5052252;28;20043;-54
2021/12/29 01:04:18;;;;;;;58.92;22.27;;;;;;;-9.47;66.76;99931.16;5073245;28;20494;-57
2021/12/29 01:06:44;;;;;;;52.97;23.67;;;;;;;-9.62;67.05;99930.38;5073127;28;20520;-58
2021/12/29 01:09:10;;;;;;;52.25;22.42;;;;;;;-9.70;65.95;99930.06;5072912;28;20040;-57
2021/12/29 01:11:36;;;;;;;55.08;23.17;;;;;;;-9.80;66.38;99934.91;5073127;28;20098;-56
2021/12/29 01:14:03;;;;;;;52.90;22.30;;;;;;;-9.85;65.95;99936.97;5072756;28;20083;-55
2021/12/29 01:19:04;;;;;;;55.63;22.25;;;;;;;-9.96;66.38;99926.53;5075164;28;20075;-56
2021/12/29 01:21:31;;;;;;;60.13;24.05;;;;;;;-10.01;66.82;99938.81;5072825;28;20050;-57
2021/12/29 01:23:57;;;;;;;60.75;23.38;;;;;;;-10.05;66.93;99925.34;5073950;28;20166;-56
2021/12/29 01:26:23;;;;;;;55.72;22.08;;;;;;;-10.08;66.09;99934.03;5092989;28;20040;-56
2021/12/29 01:28:49;;;;;;;53.72;23.30;;;;;;;-10.11;65.80;99923.16;5076546;28;20040;-58
2021/12/29 01:31:15;;;;;;;55.75;23.45;;;;;;;-10.19;66.09;99933.03;5071719;28;20040;-57
2021/12/29 01:33:41;;;;;;;62.67;24.10;;;;;;;-10.23;65.28;99926.44;5071171;28;20044;-58
2021/12/29 01:36:06;;;;;;;53.20;22.85;;;;;;;-10.25;66.00;99930.84;5072643;28;20131;-56
2021/12/29 01:38:32;;;;;;;60.25;23.65;;;;;;;-10.23;71.51;99932.41;5072390;28;20044;-56
2021/12/29 01:40:58;;;;;;;61.28;25.55;;;;;;;-10.17;72.37;99932.03;5071375;28;20052;-57
2021/12/29 01:43:24;;;;;;;66.32;24.98;;;;;;;-10.14;67.46;99936.97;5077983;28;21012;-56
2021/12/29 01:45:49;;;;;;;56.47;25.08;;;;;;;-10.18;67.42;99925.25;5093018;28;20044;-56
2021/12/29 01:48:16;;;;;;;68.05;27.23;;;;;;;-10.23;66.29;99926.44;5063415;28;20055;-56
2021/12/29 01:50:47;;;;;;;57.85;24.73;;;;;;;-10.22;67.26;99922.97;5071305;28;20045;-54
2021/12/29 01:53:22;;;;;;;58.33;26.48;;;;;;;-10.23;69.17;99931.56;5079970;28;20117;-53
2021/12/29 01:55:48;;;;;;;68.75;28.95;;;;;;;-10.26;65.66;99931.78;5072296;28;20422;-57
2021/12/29 01:58:13;;;;;;;66.35;28.70;;;;;;;-10.29;70.67;99930.25;5072393;28;20040;-54
2021/12/29 02:00:41;;;;;;;81.78;32.25;;;;;;;-10.29;71.26;99920.00;5072277;28;20452;-56
2021/12/29 02:03:08;;;;;;;80.78;31.10;;;;;;;-10.28;70.86;99934.44;5070604;28;20044;-58
2021/12/29 02:05:43;;;;;;;78.07;33.42;;;;;;;-10.35;69.71;99921.19;5070242;28;20134;-56
2021/12/29 02:08:09;;;;;;;85.07;31.95;;;;;;;-10.24;69.55;99929.91;5071678;28;20044;-55
2021/12/29 02:10:42;;;;;;;94.68;38.55;;;;;;;-10.21;70.33;99938.25;5071742;28;20120;-57
2021/12/29 02:13:09;;;;;;;93.82;39.13;;;;;;;-10.22;69.07;99926.34;5071954;28;20143;-56
2021/12/29 02:15:36;;;;;;;81.45;36.25;;;;;;;-10.23;67.68;99936.69;5071712;28;20036;-58
2021/12/29 02:18:01;;;;;;;57.17;26.25;;;;;;;-10.31;63.46;99935.44;5070345;28;20436;-57
2021/12/29 02:20:27;;;;;;;73.90;32.00;;;;;;;-10.44;66.62;99934.53;5071958;28;20043;-57
2021/12/29 02:23:12;;;;;;;68.13;27.10;;;;;;;-10.66;64.40;99934.94;5078747;28;20106;-57
2021/12/29 02:25:48;;;;;;;68.63;28.80;;;;;;;-10.70;69.49;99933.50;5072022;28;20074;-55
2021/12/29 02:28:21;;;;;;;64.30;29.58;;;;;;;-10.73;67.98;99932.81;5070493;28;20079;-57
2021/12/29 02:30:47;;;;;;;57.58;27.30;;;;;;;-10.69;67.92;99936.88;5053594;28;20037;-54
2021/12/29 02:33:14;;;;;;;61.95;26.60;;;;;;;-10.68;67.38;99930.81;5071026;28;20045;-57
2021/12/29 02:35:42;;;;;;;66.18;25.75;;;;;;;-10.69;64.55;99934.31;5070962;28;20289;-55
2021/12/29 02:38:20;;;;;;;68.10;25.27;;;;;;;-10.80;65.06;99932.34;5080919;28;20051;-57
2021/12/29 02:40:50;;;;;;;55.05;24.30;;;;;;;-10.85;64.99;99931.78;5091628;28;20040;-57
2021/12/29 02:43:19;;;;;;;50.53;22.83;;;;;;;-10.95;66.38;99939.19;5080264;28;20048;-55
2021/12/29 02:45:49;;;;;;;61.70;25.02;;;;;;;-11.05;66.94;99928.66;5083801;28;20047;-55
2021/12/29 02:48:16;;;;;;;50.15;24.05;;;;;;;-11.12;63.22;99927.31;5078827;28;20102;-58
2021/12/29 02:50:43;;;;;;;54.22;23.35;;;;;;;-11.20;66.68;99929.50;5071546;28;20043;-57
2021/12/29 02:53:09;;;;;;;59.92;23.67;;;;;;;-11.27;68.02;99933.31;5053500;28;20071;-55
2021/12/29 02:55:35;;;;;;;53.75;23.42;;;;;;;-11.38;67.23;99927.97;5069887;28;20036;-58
2021/12/29 02:58:01;;;;;;;52.60;21.30;;;;;;;-11.33;67.64;99931.09;5069935;28;20403;-57
2021/12/29 03:00:27;;;;;;;61.78;24.38;;;;;;;-11.29;68.21;99930.84;5071646;28;20047;-54
2021/12/29 03:02:53;;;;;;;57.67;21.40;;;;;;;-11.31;67.33;99926.72;5071369;28;20052;-55
2021/12/29 03:05:20;;;;;;;57.25;24.70;;;;;;;-11.43;63.52;99920.56;5069838;28;20047;-57
2021/12/29 03:07:46;;;;;;;61.55;25.58;;;;;;;-11.53;64.21;99912.56;5053032;28;20461;-58
2021/12/29 03:10:12;;;;;;;55.08;24.15;;;;;;;-11.54;67.20;99915.19;5075692;28;20036;-56
2021/12/29 03:12:37;;;;;;;63.60;24.30;;;;;;;-11.60;67.17;99906.13;5085179;28;20390;-57
2021/12/29 03:15:04;;;;;;;59.88;23.65;;;;;;;-11.64;66.70;99909.75;5074714;28;20032;-56
2021/12/29 03:17:30;;;;;;;56.00;24.27;;;;;;;-11.70;67.02;99917.78;5090399;28;20379;-56
2021/12/29 03:19:56;;;;;;;61.20;24.27;;;;;;;-11.71;64.35;99911.81;5073752;28;20032;-58
2021/12/29 03:22:22;;;;;;;64.88;25.27;;;;;;;-11.74;63.33;99916.28;5073497;28;20047;-58
2021/12/29 03:24:48;;;;;;;66.00;26.17;;;;;;;-11.86;63.16;99915.22;5075044;28;20067;-58
2021/12/29 03:27:14;;;;;;;63.60;25.77;;;;;;;-11.93;63.82;99901.94;5074729;28;20093;-56
2021/12/29 03:29:39;;;;;;;61.40;25.38;;;;;;;-12.03;64.19;99893.09;5083075;28;20348;-58
2021/12/29 03:32:08;;;;;;;61.17;24.30;;;;;;;-12.02;65.45;99912.66;5074976;28;20044;-56
2021/12/29 03:34:34;;;;;;;66.68;27.20;;;;;;;-12.07;65.42;99914.63;5089530;28;20052;-57
2021/12/29 03:37:00;;;;;;;62.97;24.20;;;;;;;-12.13;65.35;99902.19;5093436;28;20143;-56
2021/12/29 03:39:27;;;;;;;55.65;22.17;;;;;;;-12.15;65.85;99907.38;5074719;28;20036;-58
2021/12/29 03:41:53;;;;;;;63.83;25.27;;;;;;;-12.17;64.96;99908.38;5074556;28;20048;-57
2021/12/29 03:44:19;;;;;;;69.28;27.83;;;;;;;-12.29;64.42;99902.16;5074595;28;20127;-56
2021/12/29 03:46:45;;;;;;;67.38;25.83;;;;;;;-12.30;63.82;99907.34;5074575;28;20471;-57
2021/12/29 03:49:11;;;;;;;63.78;23.83;;;;;;;-12.30;64.49;99909.91;5086473;28;20084;-58
2021/12/29 03:51:37;;;;;;;60.20;23.95;;;;;;;-12.26;63.91;99904.56;5094385;28;20032;-58
2021/12/29 03:54:04;;;;;;;65.35;27.40;;;;;;;-12.22;64.23;99907.78;5076121;28;20052;-58
2021/12/29 03:56:31;;;;;;;55.00;20.92;;;;;;;-12.20;64.83;99895.75;5074722;28;20044;-57
2021/12/29 03:58:57;;;;;;;76.03;26.40;;;;;;;-12.11;66.18;99890.16;5075181;28;20037;-57
2021/12/29 04:01:25;;;;;;;75.22;27.58;;;;;;;-12.03;66.97;99888.00;5072773;28;20044;-57
2021/12/29 04:03:52;;;;;;;71.93;26.17;;;;;;;-12.01;66.35;99882.81;5074268;28;20044;-54
2021/12/29 04:06:19;;;;;;;76.43;28.48;;;;;;;-11.99;64.46;99883.56;5056498;28;20041;-59
2021/12/29 04:08:46;;;;;;;69.90;26.08;;;;;;;-12.01;66.13;99882.81;5074506;28;20045;-59
2021/12/29 04:11:13;;;;;;;80.43;28.35;;;;;;;-11.88;64.76;99885.53;5056421;28;20426;-56
2021/12/29 04:13:39;;;;;;;73.20;27.40;;;;;;;-11.74;64.19;99881.28;5077489;28;20045;-60
2021/12/29 04:16:06;;;;;;;63.15;26.65;;;;;;;-11.64;64.10;99878.25;5073829;28;20041;-57
2021/12/29 04:18:32;;;;;;;78.45;28.23;;;;;;;-11.53;63.41;99873.34;5072672;28;20465;-58
2021/12/29 04:21:03;;;;;;;74.65;28.58;;;;;;;-11.45;62.85;99879.69;5072716;28;20043;-58
2021/12/29 04:23:34;;;;;;;62.58;26.95;;;;;;;-11.35;62.82;99880.00;5074113;28;20044;-58
2021/12/29 04:26:02;;;;;;;70.15;28.33;;;;;;;-11.18;62.92;99880.78;5074348;28;20492;-58
2021/12/29 04:28:29;;;;;;;71.65;28.85;;;;;;;-11.14;62.06;99880.53;5080768;28;20072;-58
2021/12/29 04:30:57;;;;;;;72.63;29.73;;;;;;;-11.16;62.20;99884.91;5073807;28;20375;-56
2021/12/29 04:33:24;;;;;;;71.70;28.33;;;;;;;-11.05;62.73;99886.88;5073894;28;20055;-58
2021/12/29 04:35:51;;;;;;;78.32;28.92;;;;;;;-11.04;64.96;99885.94;5084000;28;20056;-57
2021/12/29 04:38:16;;;;;;;79.63;30.05;;;;;;;-10.88;62.93;99886.72;5088090;28;20476;-57
2021/12/29 04:40:42;;;;;;;68.13;28.50;;;;;;;-10.77;63.66;99888.63;5092526;28;20044;-57
2021/12/29 04:43:08;;;;;;;78.88;28.25;;;;;;;-10.61;64.02;99883.47;5081697;28;20067;-56
2021/12/29 04:45:34;;;;;;;80.55;28.23;;;;;;;-10.49;63.72;99884.47;5071893;28;20077;-57
2021/12/29 04:48:01;;;;;;;71.25;25.67;;;;;;;-10.31;62.90;99873.94;5073225;28;20136;-58
2021/12/29 04:50:30;;;;;;;78.28;29.95;;;;;;;-10.20;62.53;99880.13;5073117;28;20047;-59
2021/12/29 04:52:59;;;;;;;85.68;31.20;;;;;;;-10.06;62.24;99885.22;5055187;28;20037;-60
2021/12/29 04:55:26;;;;;;;79.37;31.00;;;;;;;-10.15;61.62;99885.78;5073197;28;20039;-57
2021/12/29 04:57:52;;;;;;;81.53;31.70;;;;;;;-10.23;61.03;99877.72;5072904;28;20075;-57
2021/12/29 05:00:21;;;;;;;81.90;30.85;;;;;;;-10.38;61.51;99882.91;5073086;28;20498;-58
2021/12/29 05:02:48;;;;;;;87.30;30.00;;;;;;;-10.32;61.79;99891.97;5071685;28;20061;-56
2021/12/29 05:05:39;;;;;;;82.53;29.88;;;;;;;-10.24;62.40;99894.03;5073136;28;20044;-54
2021/12/29 05:08:25;;;;;;;81.82;28.25;;;;;;;-10.11;61.30;99893.22;5071840;28;20036;-58
2021/12/29 05:11:13;;;;;;;67.00;25.63;;;;;;;-10.01;61.20;99890.06;5071610;28;20047;-58
2021/12/29 05:13:41;;;;;;;67.65;24.92;;;;;;;-10.17;62.99;99885.06;5073146;28;20051;-58
2021/12/29 05:16:08;;;;;;;77.43;27.00;;;;;;;-10.15;63.36;99889.16;5071457;28;20413;-59
2021/12/29 05:18:35;;;;;;;71.28;26.63;;;;;;;-10.15;63.70;99883.22;5072783;28;20044;-58
2021/12/29 05:21:03;;;;;;;71.80;27.40;;;;;;;-10.06;64.74;99883.50;5072739;28;20067;-57
2021/12/29 05:23:28;;;;;;;76.85;25.88;;;;;;;-10.00;65.53;99884.03;5072898;28;20050;-59
2021/12/29 05:25:55;;;;;;;69.85;22.92;;;;;;;-9.91;66.32;99886.00;5078800;28;20127;-58
2021/12/29 05:28:23;;;;;;;76.00;25.05;;;;;;;-9.99;65.13;99873.69;5080370;28;20063;-57
2021/12/29 05:30:49;;;;;;;73.97;25.15;;;;;;;-10.07;65.38;99891.28;5084100;28;20101;-58
2021/12/29 05:33:15;;;;;;;54.95;20.63;;;;;;;-10.19;65.14;99892.03;5081473;28;20521;-58
2021/12/29 05:35:42;;;;;;;84.47;28.77;;;;;;;-10.31;65.23;99888.50;5070069;28;20060;-55
2021/12/29 05:38:08;;;;;;;75.85;27.70;;;;;;;-10.23;64.23;99882.84;5067077;28;20044;-59
2021/12/29 05:40:34;;;;;;;68.35;26.05;;;;;;;-10.18;63.26;99881.66;5069956;28;20037;-57
2021/12/29 05:43:00;;;;;;;75.78;27.52;;;;;;;-10.03;64.50;99879.09;5066688;28;20093;-59
2021/12/29 05:45:27;;;;;;;80.35;28.02;;;;;;;-9.87;63.00;99890.06;5067159;28;20323;-58
2021/12/29 05:47:55;;;;;;;81.18;31.40;;;;;;;-9.91;61.67;99888.56;5068091;28;20051;-59
2021/12/29 05:50:24;;;;;;;81.60;29.15;;;;;;;-9.90;60.84;99891.06;5082021;28;20450;-58
2021/12/29 05:52:50;;;;;;;78.00;29.13;;;;;;;-9.78;60.77;99880.97;5079107;28;20044;-56
2021/12/29 05:55:16;;;;;;;77.80;26.85;;;;;;;-9.68;60.45;99887.97;5069576;28;20116;-58
2021/12/29 05:57:43;;;;;;;89.30;28.98;;;;;;;-9.57;60.96;99889.88;5072264;28;20493;-57
2021/12/29 06:00:12;;;;;;;79.25;28.10;;;;;;;-9.55;60.09;99900.88;5091283;28;20498;-57
2021/12/29 06:02:38;;;;;;;71.53;27.15;;;;;;;-9.45;59.90;99889.09;5080979;28;20099;-58
2021/12/29 06:05:06;;;;;;;75.20;26.98;;;;;;;-9.37;60.41;99898.88;5069697;28;20064;-57
2021/12/29 06:07:33;;;;;;;84.18;28.83;;;;;;;-9.29;60.29;99898.38;5069386;28;20123;-58
2021/12/29 06:10:00;;;;;;;75.72;27.25;;;;;;;-9.29;60.58;99898.38;5070577;28;20033;-58
2021/12/29 06:12:25;;;;;;;72.68;25.92;;;;;;;-9.31;60.52;99906.19;5079768;28;20401;-58
2021/12/29 06:14:51;;;;;;;72.03;25.20;;;;;;;-9.51;62.45;99910.00;5068458;28;20041;-60
2021/12/29 06:17:17;;;;;;;78.30;27.63;;;;;;;-9.49;61.18;99905.63;5069980;28;20040;-57
2021/12/29 06:19:43;;;;;;;66.63;25.98;;;;;;;-9.55;62.23;99903.44;5070321;28;20044;-59
2021/12/29 06:22:10;;;;;;;73.65;27.38;;;;;;;-9.59;61.32;99896.84;5077111;28;20055;-58
2021/12/29 06:24:38;;;;;;;83.35;25.95;;;;;;;-9.67;61.91;99906.78;5069992;28;20044;-57
2021/12/29 06:27:04;;;;;;;70.05;26.15;;;;;;;-9.79;62.92;99899.81;5069495;28;20090;-58
2021/12/29 06:29:30;;;;;;;62.90;22.77;;;;;;;-9.85;62.15;99895.94;5071036;28;20048;-58
2021/12/29 06:31:56;;;;;;;78.25;27.73;;;;;;;-9.95;62.42;99898.22;5086830;28;20044;-59
2021/12/29 06:34:22;;;;;;;74.63;27.48;;;;;;;-10.03;62.67;99900.41;5077571;28;20483;-56
2021/12/29 06:36:48;;;;;;;73.20;26.85;;;;;;;-9.84;62.54;99898.38;5086676;28;20055;-59
2021/12/29 06:39:13;;;;;;;78.40;25.20;;;;;;;-9.63;62.05;99900.53;5085843;28;20425;-58
2021/12/29 06:41:40;;;;;;;81.82;26.65;;;;;;;-9.45;61.92;99906.25;5048734;28;20414;-58
2021/12/29 06:44:06;;;;;;;73.00;26.25;;;;;;;-9.49;61.36;99907.38;5072228;28;20043;-60
2021/12/29 06:46:34;;;;;;;80.82;26.38;;;;;;;-9.35;62.38;99901.34;5069487;28;20506;-58
2021/12/29 06:49:00;;;;;;;84.60;27.15;;;;;;;-9.23;61.58;99905.72;5071722;28;20041;-63
2021/12/29 06:51:26;;;;;;;73.35;28.60;;;;;;;-9.15;60.60;99913.72;5050228;28;20127;-58
2021/12/29 06:53:52;;;;;;;82.40;28.73;;;;;;;-9.30;62.13;99919.84;5080995;28;20134;-57
2021/12/29 06:56:18;;;;;;;82.88;28.00;;;;;;;-9.23;61.45;99921.94;5087966;28;20101;-56
2021/12/29 06:58:44;;;;;;;65.72;24.17;;;;;;;-9.42;61.65;99917.13;5072141;28;20102;-56
2021/12/29 07:01:11;;;;;;;65.88;23.40;;;;;;;-9.62;62.74;99915.84;5065360;28;20050;-60
2021/12/29 07:03:37;;;;;;;50.85;21.48;;;;;;;-9.77;62.94;99918.53;5069665;28;20051;-60
2021/12/29 07:06:03;;;;;;;54.75;21.02;;;;;;;-9.75;63.48;99916.69;5071454;28;20409;-57
2021/12/29 07:08:29;;;;;;;69.43;26.65;;;;;;;-9.74;62.96;99908.88;5074418;28;20058;-59
2021/12/29 07:10:54;;;;;;;78.25;26.65;;;;;;;-9.82;63.75;99911.13;5078084;28;20036;-57
2021/12/29 07:13:20;;;;;;;74.10;25.52;;;;;;;-9.60;63.68;99911.41;5076910;28;20045;-57
2021/12/29 07:15:47;;;;;;;64.63;20.98;;;;;;;-9.68;63.94;99911.06;5067019;28;20405;-59
2021/12/29 07:18:13;;;;;;;79.40;25.00;;;;;;;-9.68;63.57;99905.13;5066943;28;20052;-57
2021/12/29 07:20:39;;;;;;;69.50;24.15;;;;;;;-9.59;63.79;99904.53;5065798;28;20086;-57
2021/12/29 07:23:05;;;;;;;72.68;24.60;;;;;;;-9.59;63.90;99899.41;5066319;28;20075;-59
2021/12/29 07:25:31;;;;;;;66.40;21.15;;;;;;;-9.64;64.43;99904.03;5074901;28;20039;-58
2021/12/29 07:27:57;;;;;;;57.00;21.73;;;;;;;-9.75;64.95;99891.03;5076591;28;20201;-57
2021/12/29 07:30:23;;;;;;;61.75;21.75;;;;;;;-9.77;64.75;99891.13;5049205;28;20040;-57
2021/12/29 07:32:49;;;;;;;59.03;22.00;;;;;;;-9.76;64.93;99889.38;5067604;28;20063;-56
2021/12/29 07:35:15;;;;;;;64.30;25.42;;;;;;;-9.82;65.04;99885.47;5082429;28;20501;-57
2021/12/29 07:37:41;;;;;;;50.80;20.27;;;;;;;-9.90;65.69;99885.94;5079344;28;20056;-57
2021/12/29 07:40:08;;;;;;;69.35;23.08;;;;;;;-9.85;64.99;99885.66;5067476;28;20047;-57
2021/12/29 07:42:38;;;;;;;68.22;24.23;;;;;;;-9.87;64.17;99898.56;5064109;28;20513;-62
2021/12/29 07:45:07;;;;;;;;;;;;;;;-9.78;64.56;99889.47;5065836;28;20040;-56
2021/12/29 07:47:46;;;;;;;53.53;20.60;;;;;;;-9.89;64.26;99889.31;5070071;28;19920;-58
2021/12/29 07:50:12;;;;;;;54.33;19.38;;;;;;;-9.80;64.33;99891.31;5046199;28;20047;-57
2021/12/29 07:52:38;;;;;;;64.15;23.70;;;;;;;-9.80;64.33;99883.63;5066370;28;20041;-56
2021/12/29 07:55:05;;;;;;;68.78;22.95;;;;;;;-9.72;63.98;99880.59;5076310;28;20586;-57
2021/12/29 07:57:30;;;;;;;68.97;24.73;;;;;;;-9.68;64.32;99880.28;5082601;28;20036;-56
2021/12/29 07:59:56;;;;;;;61.70;24.48;;;;;;;-9.64;63.67;99880.94;5071988;28;20054;-56
2021/12/29 08:02:27;;;;;;;62.42;22.23;;;;;;;-9.56;64.09;99885.56;5087647;28;20051;-54
2021/12/29 08:04:58;;;;;;;58.35;22.42;;;;;;;-9.52;63.50;99876.75;5069321;28;20036;-57
2021/12/29 08:07:25;;;;;;;70.68;23.30;;;;;;;-9.44;63.03;99877.06;5070321;28;20041;-56
2021/12/29 08:09:52;;;;;;;50.28;19.77;;;;;;;-9.42;63.74;99872.69;5072846;28;20087;-57
2021/12/29 08:12:18;;;;;;;65.95;23.88;;;;;;;-9.52;63.00;99869.88;5069893;28;20133;-56
2021/12/29 08:14:45;;;;;;;54.53;18.85;;;;;;;-9.51;63.16;99871.53;5070130;28;20045;-57
2021/12/29 08:17:12;;;;;;;62.13;23.63;;;;;;;-9.51;64.23;99863.00;5072046;28;20502;-57
2021/12/29 08:19:38;;;;;;;75.13;27.45;;;;;;;-9.55;64.13;99851.28;5070673;28;20387;-55
2021/12/29 08:22:04;;;;;;;58.63;23.00;;;;;;;-9.46;63.50;99864.34;5068688;28;20074;-59
2021/12/29 08:24:30;;;;;;;59.08;23.58;;;;;;;-9.35;62.83;99863.69;5052845;28;20071;-57
2021/12/29 08:26:56;;;;;;;61.97;22.55;;;;;;;-9.31;63.70;99864.28;5069651;28;20087;-56
2021/12/29 08:29:21;;;;;;;61.38;22.75;;;;;;;-9.31;63.17;99861.72;5058418;28;20123;-57
2021/12/29 08:31:47;;;;;;;72.25;23.13;;;;;;;-9.39;63.75;99854.50;5076627;28;20056;-57
2021/12/29 08:34:15;;;;;;;51.28;20.50;;;;;;;-9.51;63.64;99853.56;5070041;28;20055;-57
2021/12/29 08:36:41;;;;;;;63.55;22.17;;;;;;;-9.66;63.71;99839.13;5068479;28;20090;-59
2021/12/29 08:39:07;;;;;;;64.63;22.52;;;;;;;-9.70;63.44;99858.22;5068887;28;20517;-58
2021/12/29 08:41:34;;;;;;;70.82;24.05;;;;;;;-9.84;64.03;99846.25;5070303;28;20134;-56
2021/12/29 08:44:00;;;;;;;53.95;20.70;;;;;;;-9.98;64.40;99849.66;5070861;28;20040;-61
2021/12/29 08:46:28;;;;;;;69.68;22.80;;;;;;;-10.06;64.70;99849.31;5070336;28;20066;-57
2021/12/29 08:48:53;;;;;;;75.70;24.52;;;;;;;-10.01;64.78;99843.91;5081758;28;20069;-56
2021/12/29 08:51:19;;;;;;;61.28;25.40;;;;;;;-9.97;64.85;99841.06;5090324;28;20048;-56
2021/12/29 08:53:47;;;;;;;62.95;24.95;;;;;;;-9.94;64.67;99840.88;5075346;28;20055;-56
2021/12/29 08:56:14;;;;;;;72.10;27.10;;;;;;;-10.05;64.65;99840.72;5068726;28;20052;-58
2021/12/29 08:58:40;;;;;;;63.83;24.13;;;;;;;-10.05;65.47;99840.72;5069686;28;20063;-57
2021/12/29 09:01:06;;;;;;;75.32;27.38;;;;;;;-10.11;65.78;99833.41;5085735;28;20040;-56
2021/12/29 09:03:32;;;;;;;60.03;21.25;;;;;;;-10.12;65.57;99832.56;5078334;28;20509;-58
2021/12/29 09:05:58;;;;;;;65.93;24.08;;;;;;;-10.16;65.92;99823.44;5070167;28;20486;-57
2021/12/29 09:08:24;;;;;;;64.78;24.77;;;;;;;-10.10;66.01;99829.94;5069628;28;20076;-55
2021/12/29 09:10:49;;;;;;;65.47;25.42;;;;;;;-10.06;65.79;99826.25;5070337;28;20032;-58
2021/12/29 09:13:16;;;;;;;61.28;22.50;;;;;;;-10.02;64.98;99825.16;5071553;28;20448;-56
2021/12/29 09:15:42;;;;;;;56.85;21.25;;;;;;;-10.10;65.49;99812.78;5072546;28;20375;-58
2021/12/29 09:18:07;;;;;;;67.80;25.50;;;;;;;-10.14;66.03;99815.66;5070158;28;20047;-58
2021/12/29 09:20:36;;;;;;;55.10;22.45;;;;;;;-10.11;65.95;99816.28;5072014;28;20115;-59
2021/12/29 09:23:08;;;;;;;66.78;24.05;;;;;;;-10.07;66.05;99814.34;5071032;28;20045;-59
2021/12/29 09:25:35;;;;;;;71.35;26.40;;;;;;;-10.14;66.20;99813.09;5071685;28;20524;-60
2021/12/29 09:28:01;;;;;;;53.08;22.25;;;;;;;-10.19;66.19;99803.09;5070736;28;20450;-56
2021/12/29 09:30:30;;;;;;;66.45;24.80;;;;;;;-10.11;66.40;99805.22;5070399;28;20406;-60
2021/12/29 09:32:56;;;;;;;64.28;22.80;;;;;;;-10.05;66.47;99797.13;5069424;28;20044;-60
2021/12/29 09:35:23;;;;;;;71.93;26.65;;;;;;;-10.11;66.64;99802.66;5070881;28;20117;-61
2021/12/29 09:37:51;;;;;;;70.18;25.58;;;;;;;-10.12;66.43;99803.53;5069783;28;20696;-59
2021/12/29 09:40:20;;;;;;;73.85;26.33;;;;;;;-10.12;66.80;99798.41;5070035;28;20510;-60
2021/12/29 09:42:46;;;;;;;71.07;26.40;;;;;;;-10.09;67.25;99796.50;5069322;28;20049;-59
2021/12/29 09:45:13;;;;;;;74.20;25.73;;;;;;;-10.11;67.59;99785.50;5070494;28;20049;-60
2021/12/29 09:47:39;;;;;;;73.90;25.40;;;;;;;-10.04;67.63;99782.56;5070503;28;20045;-59
2021/12/29 09:50:10;;;;;;;74.35;26.92;;;;;;;-9.96;68.11;99776.03;5069806;28;20043;-61
2021/12/29 09:52:36;;;;;;;61.28;25.83;;;;;;;-9.87;68.33;99780.56;5069286;28;20574;-58
2021/12/29 09:55:05;;;;;;;67.68;24.27;;;;;;;-9.85;68.28;99771.06;5069818;28;20048;-57
2021/12/29 09:57:32;;;;;;;77.75;26.75;;;;;;;-9.77;68.60;99779.97;5067095;28;20040;-57
2021/12/29 09:59:58;;;;;;;62.30;24.17;;;;;;;-9.70;67.94;99782.06;5068194;28;20418;-58
2021/12/29 10:02:25;;;;;;;67.85;25.60;;;;;;;-9.68;67.58;99774.25;5066216;28;20086;-59
2021/12/29 10:04:52;;;;;;;72.75;25.73;;;;;;;-9.64;68.38;99775.72;5070170;28;20044;-58
2021/12/29 10:07:20;;;;;;;72.75;25.83;;;;;;;-9.61;67.91;99772.97;5065962;28;20075;-56
2021/12/29 10:09:46;;;;;;;72.93;26.70;;;;;;;-9.57;68.08;99771.00;5066655;28;20524;-59
2021/12/29 10:12:20;;;;;;;50.50;20.10;;;;;;;-9.62;68.36;99767.00;5085938;28;20078;-64
2021/12/29 10:15:02;;;;;;;62.80;23.80;;;;;;;-9.58;68.32;99759.09;5082353;28;20070;-59
2021/12/29 10:17:31;;;;;;;69.63;25.02;;;;;;;-9.50;68.71;99760.25;5060907;28;20068;-59
2021/12/29 10:20:13;;;;;;;66.38;24.73;;;;;;;-9.48;68.49;99757.56;5082710;28;20078;-59
2021/12/29 10:22:40;;;;;;;61.25;22.27;;;;;;;-9.50;67.94;99746.56;5082221;28;20032;-59
2021/12/29 10:25:10;;;;;;;51.75;21.02;;;;;;;-9.53;68.91;99747.59;5067794;28;20044;-59
2021/12/29 10:27:37;;;;;;;65.90;26.38;;;;;;;-9.54;68.23;99752.84;5068659;28;20044;-59
2021/12/29 10:30:22;;;;;;;66.38;25.23;;;;;;;-9.53;68.71;99739.91;5066798;28;20052;-60
2021/12/29 10:32:49;;;;;;;63.05;23.60;;;;;;;-9.48;68.25;99737.03;5080228;28;20056;-60
2021/12/29 10:35:33;;;;;;;62.58;24.17;;;;;;;-9.41;68.83;99728.00;5069785;28;20108;-61
2021/12/29 10:38:14;;;;;;;66.25;23.92;;;;;;;-9.40;68.55;99724.53;5057080;28;20052;-59
2021/12/29 10:40:41;;;;;;;68.30;26.00;;;;;;;-9.31;68.96;99728.22;5067109;28;20131;-61
2021/12/29 10:43:06;;;;;;;67.22;25.05;;;;;;;-9.28;69.14;99733.97;5077361;28;20079;-61
2021/12/29 10:45:35;;;;;;;66.60;24.35;;;;;;;-9.35;68.34;99735.31;5086357;28;20071;-60
2021/12/29 10:48:16;;;;;;;73.47;25.60;;;;;;;-9.23;68.94;99731.94;5080081;28;20450;-60
2021/12/29 10:50:54;;;;;;;64.95;24.15;;;;;;;-9.09;68.31;99725.84;5046645;28;20029;-57
2021/12/29 10:53:27;;;;;;;58.72;21.45;;;;;;;-9.06;68.16;99722.25;5057935;28;20052;-59
2021/12/29 10:55:53;;;;;;;66.95;25.60;;;;;;;-9.10;67.67;99719.06;5065955;28;20072;-58
2021/12/29 10:58:23;;;;;;;65.10;25.00;;;;;;;-9.08;67.16;99722.38;5066033;28;20041;-56
2021/12/29 11:01:07;;;;;;;66.60;24.30;;;;;;;-9.14;68.01;99717.66;5016235;28;20051;-58
2021/12/29 11:03:35;;;;;;;65.20;21.83;;;;;;;-9.13;67.71;99713.34;5062932;28;20114;-59
2021/12/29 11:06:03;;;;;;;69.70;24.35;;;;;;;-9.10;68.26;99715.69;5081865;28;20036;-60
2021/12/29 11:08:33;;;;;;;68.68;24.05;;;;;;;-9.18;68.85;99711.88;5071314;28;20122;-55
2021/12/29 11:11:06;;;;;;;72.40;24.47;;;;;;;-9.10;68.33;99706.22;5064075;28;20044;-59
2021/12/29 11:13:32;;;;;;;72.80;25.30;;;;;;;-9.05;67.72;99709.31;5066276;28;20048;-56
2021/12/29 11:16:00;;;;;;;61.70;25.27;;;;;;;-9.05;68.51;99711.88;5079400;28;20048;-59
2021/12/29 11:18:26;;;;;;;72.95;25.20;;;;;;;-9.00;67.65;99708.97;5080783;28;20037;-56
2021/12/29 11:20:54;;;;;;;62.90;25.13;;;;;;;-9.01;68.41;99712.50;5065932;28;20052;-59